Time;durP1;ratioP1;P1;durP2;ratioP2;P2;SDS_P1;SDS_P2;PMS_P1;PMS_P2;Temp;Humidity;BMP_temperature;BMP_pressure;BME280_temperature;BME280_humidity;BME280_pressure;Samples;Min_cycle;Max_cycle;Signal;HPM_P1;HPM_P2
2022/05/13 00:01:25;;;;;;;11.65;5.32;;;10.10;85.10;;;;;;5051154;28;20421;-44
2022/05/13 00:03:52;;;;;;;10.10;4.97;;;10.10;85.20;;;;;;5048861;28;20120;-44
2022/05/13 00:06:18;;;;;;;15.25;5.55;;;10.10;85.00;;;;;;5051026;28;20385;-44
2022/05/13 00:08:47;;;;;;;9.25;5.63;;;10.10;85.10;;;;;;5050615;28;20044;-44
2022/05/13 00:11:13;;;;;;;7.05;5.15;;;10.10;85.10;;;;;;5035035;28;20013;-44
2022/05/13 00:13:40;;;;;;;11.30;6.05;;;10.00;85.20;;;;;;5032722;28;20025;-43
2022/05/13 00:16:08;;;;;;;10.57;5.63;;;10.00;85.30;;;;;;5034641;28;20060;-43
2022/05/13 00:18:35;;;;;;;9.68;5.72;;;9.90;85.30;;;;;;5050371;28;20435;-43
2022/05/13 00:21:02;;;;;;;10.20;5.70;;;9.90;85.50;;;;;;5051421;28;20048;-43
2022/05/13 00:23:30;;;;;;;12.05;6.45;;;9.90;85.80;;;;;;5049272;28;20025;-45
2022/05/13 00:26:01;;;;;;;13.68;6.70;;;9.90;86.00;;;;;;5034419;28;20025;-47
2022/05/13 00:28:28;;;;;;;13.05;6.72;;;9.90;86.10;;;;;;5049573;28;20405;-44
2022/05/13 00:30:55;;;;;;;10.95;6.15;;;9.90;86.00;;;;;;5031815;28;20033;-44
2022/05/13 00:33:22;;;;;;;11.35;6.45;;;9.90;86.00;;;;;;5032475;28;20054;-45
2022/05/13 00:35:49;;;;;;;10.25;6.43;;;9.90;86.10;;;;;;5034055;28;20021;-44
2022/05/13 00:38:17;;;;;;;7.03;5.50;;;9.90;86.20;;;;;;5050402;28;20430;-44
2022/05/13 00:40:46;;;;;;;11.85;6.40;;;10.00;86.10;;;;;;5034153;28;20094;-43
2022/05/13 00:43:15;;;;;;;7.72;6.22;;;10.10;86.10;;;;;;5050193;28;20029;-44
2022/05/13 00:45:40;;;;;;;9.57;5.77;;;10.10;86.00;;;;;;5050707;28;20029;-43
2022/05/13 00:48:08;;;;;;;9.85;6.60;;;10.20;86.00;;;;;;5050297;28;20495;-43
2022/05/13 00:50:37;;;;;;;8.70;5.82;;;10.20;85.80;;;;;;5027292;28;20030;-46
2022/05/13 00:53:04;;;;;;;11.50;6.68;;;10.20;85.80;;;;;;5012221;28;20096;-46
2022/05/13 00:55:44;;;;;;;12.70;6.60;;;10.30;85.90;;;;;;5043256;28;20064;-44
2022/05/13 00:58:13;;;;;;;;;;;10.30;85.90;;;;;;5042245;28;20080;-44
2022/05/13 01:00:41;;;;;;;11.80;5.80;;;10.40;85.60;;;;;;5011635;28;19917;-44
2022/05/13 01:03:07;;;;;;;11.63;7.07;;;10.40;85.60;;;;;;5012037;28;20257;-45
2022/05/13 01:05:35;;;;;;;11.20;6.40;;;10.40;85.40;;;;;;5011598;28;20030;-44
2022/05/13 01:08:07;;;;;;;10.98;7.00;;;10.40;85.30;;;;;;5012076;28;20036;-44
2022/05/13 01:10:36;;;;;;;16.63;8.02;;;10.50;85.10;;;;;;5011220;28;20036;-45
2022/05/13 01:13:08;;;;;;;8.52;5.57;;;10.50;84.90;;;;;;5012208;28;20366;-46
2022/05/13 01:15:37;;;;;;;14.50;6.82;;;10.50;85.10;;;;;;5027097;28;20439;-43
2022/05/13 01:18:10;;;;;;;14.27;7.05;;;10.50;84.80;;;;;;5011834;28;20034;-45
2022/05/13 01:20:46;;;;;;;8.32;6.50;;;10.50;84.70;;;;;;5011353;28;20045;-45
2022/05/13 01:23:32;;;;;;;10.25;6.35;;;10.50;84.60;;;;;;5011061;28;20112;-44
2022/05/13 01:26:19;;;;;;;9.18;5.68;;;10.50;84.70;;;;;;5015582;28;20101;-44
2022/05/13 01:28:55;;;;;;;12.80;5.75;;;10.50;84.40;;;;;;5014885;28;20057;-44
2022/05/13 01:31:43;;;;;;;10.48;5.38;;;10.60;84.20;;;;;;5015240;28;20017;-46
2022/05/13 01:34:12;;;;;;;9.27;5.47;;;10.60;84.30;;;;;;5014952;28;20044;-45
2022/05/13 01:36:39;;;;;;;10.50;5.35;;;10.60;84.30;;;;;;5015369;28;20018;-44
2022/05/13 01:39:07;;;;;;;11.00;5.50;;;10.60;84.00;;;;;;5014329;28;20042;-44
2022/05/13 01:41:34;;;;;;;8.32;5.35;;;10.60;83.90;;;;;;5015003;28;20030;-44
2022/05/13 01:44:01;;;;;;;7.75;5.25;;;10.70;83.90;;;;;;5014183;28;20467;-45
2022/05/13 01:46:28;;;;;;;8.85;5.78;;;10.70;83.70;;;;;;5014692;28;20030;-45
2022/05/13 01:48:57;;;;;;;8.90;5.75;;;10.70;83.70;;;;;;5013915;28;20048;-45
2022/05/13 01:51:25;;;;;;;8.95;6.22;;;10.70;83.70;;;;;;5014612;28;20466;-44
2022/05/13 01:53:54;;;;;;;8.82;5.45;;;10.70;83.50;;;;;;5013799;28;20038;-45
2022/05/13 01:56:20;;;;;;;7.63;5.47;;;10.70;83.60;;;;;;5042702;28;20647;-44
2022/05/13 01:58:49;;;;;;;8.13;5.82;;;10.70;83.60;;;;;;5051836;28;20059;-45
2022/05/13 02:01:19;;;;;;;9.45;6.28;;;10.70;83.60;;;;;;5054087;28;20032;-45
2022/05/13 02:03:45;;;;;;;11.15;6.57;;;10.70;83.40;;;;;;5050381;28;20746;-45
2022/05/13 02:06:14;;;;;;;13.75;6.65;;;10.70;83.40;;;;;;5054133;28;20029;-44
2022/05/13 02:08:41;;;;;;;9.55;5.78;;;10.70;83.30;;;;;;5052377;28;20037;-45
2022/05/13 02:11:09;;;;;;;7.60;5.78;;;10.80;83.40;;;;;;5035596;28;20450;-45
2022/05/13 02:13:39;;;;;;;9.60;5.95;;;10.80;83.40;;;;;;5052131;28;20029;-45
2022/05/13 02:16:06;;;;;;;7.28;5.78;;;10.70;83.30;;;;;;5053983;28;20358;-48
2022/05/13 02:18:34;;;;;;;7.85;5.78;;;10.80;83.30;;;;;;5050812;28;20033;-46
2022/05/13 02:21:00;;;;;;;12.57;6.75;;;10.90;83.20;;;;;;5054268;28;20021;-46
2022/05/13 02:23:26;;;;;;;13.02;5.90;;;10.90;83.10;;;;;;5034885;28;20040;-45
2022/05/13 02:25:58;;;;;;;11.23;5.82;;;10.90;83.30;;;;;;5054187;28;20033;-45
2022/05/13 02:28:26;;;;;;;11.38;5.75;;;10.90;82.90;;;;;;5051666;28;20336;-48
2022/05/13 02:30:53;;;;;;;11.57;6.53;;;10.80;83.00;;;;;;5053934;28;20056;-48
2022/05/13 02:33:20;;;;;;;8.80;5.78;;;10.90;83.00;;;;;;5034667;28;20032;-46
2022/05/13 02:35:45;;;;;;;9.90;5.72;;;10.90;83.10;;;;;;5036216;28;20040;-47
2022/05/13 02:38:14;;;;;;;11.88;6.70;;;10.90;83.00;;;;;;5034491;28;20044;-45
2022/05/13 02:43:28;;;;;;;9.70;5.47;;;10.90;82.90;;;;;;5052256;28;20101;-47
2022/05/13 02:45:55;;;;;;;9.13;5.63;;;10.90;82.90;;;;;;5053673;28;20029;-45
2022/05/13 02:48:22;;;;;;;8.52;5.68;;;10.90;82.90;;;;;;5052087;28;20025;-45
2022/05/13 02:50:48;;;;;;;7.57;5.15;;;10.90;82.70;;;;;;5036356;28;20040;-46
2022/05/13 02:53:15;;;;;;;10.00;5.05;;;10.90;82.80;;;;;;5051978;28;20032;-45
2022/05/13 02:55:47;;;;;;;8.80;5.30;;;10.90;82.90;;;;;;5053274;28;20052;-48
2022/05/13 02:58:18;;;;;;;11.63;5.30;;;10.90;82.90;;;;;;5051852;28;20037;-45
2022/05/13 03:00:45;;;;;;;9.95;5.65;;;10.90;82.80;;;;;;5035798;28;20166;-47
2022/05/13 03:03:11;;;;;;;9.00;5.63;;;10.90;82.90;;;;;;5033498;28;20029;-47
2022/05/13 03:05:38;;;;;;;17.27;5.80;;;11.00;82.90;;;;;;5052442;28;20025;-48
2022/05/13 03:08:07;;;;;;;14.00;6.28;;;10.90;82.80;;;;;;5051712;28;20021;-46
2022/05/13 03:10:38;;;;;;;10.57;5.43;;;10.90;82.70;;;;;;5034917;28;20029;-48
2022/05/13 03:13:07;;;;;;;11.40;5.75;;;10.90;82.70;;;;;;5014692;28;20034;-49
2022/05/13 03:15:34;;;;;;;6.72;4.80;;;10.90;82.90;;;;;;5033074;28;20373;-46
2022/05/13 03:18:05;;;;;;;7.25;4.78;;;10.90;82.90;;;;;;5043342;28;20033;-51
2022/05/13 03:20:32;;;;;;;12.30;6.03;;;10.90;83.00;;;;;;5052975;28;20028;-45
2022/05/13 03:22:58;;;;;;;9.48;5.70;;;10.90;82.80;;;;;;5051771;28;20488;-45
2022/05/13 03:25:27;;;;;;;9.13;5.47;;;10.90;83.00;;;;;;5051489;28;20108;-47
2022/05/13 03:27:54;;;;;;;9.68;5.20;;;10.90;83.10;;;;;;5048353;28;20178;-49
2022/05/13 03:30:22;;;;;;;10.85;5.05;;;10.90;83.10;;;;;;5052875;28;20037;-45
2022/05/13 03:32:50;;;;;;;9.35;4.72;;;10.90;83.00;;;;;;5045187;28;20028;-48
2022/05/13 03:35:18;;;;;;;10.57;5.28;;;10.90;83.20;;;;;;5052630;28;20033;-46
2022/05/13 03:37:45;;;;;;;9.35;5.07;;;10.90;83.30;;;;;;5033190;28;20473;-48
2022/05/13 03:40:14;;;;;;;6.93;5.22;;;11.00;83.10;;;;;;5050740;28;20106;-47
2022/05/13 03:42:40;;;;;;;5.72;4.28;;;10.90;83.00;;;;;;5052937;28;20017;-47
2022/05/13 03:45:13;;;;;;;8.38;4.50;;;11.00;83.20;;;;;;5051382;28;20393;-45
2022/05/13 03:47:40;;;;;;;8.35;4.45;;;11.00;83.10;;;;;;5040288;28;20013;-48
2022/05/13 03:50:08;;;;;;;9.30;4.78;;;11.00;82.90;;;;;;5051200;28;20021;-45
2022/05/13 03:52:35;;;;;;;8.80;4.60;;;11.00;83.00;;;;;;5049343;28;20025;-48
2022/05/13 03:55:03;;;;;;;10.20;4.60;;;11.00;83.00;;;;;;5048359;28;20060;-48
2022/05/13 03:57:34;;;;;;;10.67;5.40;;;11.10;82.80;;;;;;5012415;28;20108;-45
2022/05/13 04:00:03;;;;;;;11.13;4.50;;;11.10;82.90;;;;;;5011672;28;20037;-46
2022/05/13 04:02:29;;;;;;;9.38;4.07;;;11.10;82.80;;;;;;5041349;28;20034;-48
2022/05/13 04:10:27;;;;;;;10.65;3.78;;;11.00;83.10;;;;;;5012752;28;20108;-46
2022/05/13 04:18:26;;;;;;;7.97;4.65;;;11.00;83.00;;;;;;5011530;28;20052;-45
2022/05/13 04:20:54;;;;;;;8.98;4.57;;;11.00;83.00;;;;;;5011504;28;20037;-49
2022/05/13 04:23:20;;;;;;;8.27;4.03;;;11.10;83.00;;;;;;5011422;28;20600;-48
2022/05/13 04:25:47;;;;;;;5.80;4.03;;;11.00;83.00;;;;;;5043488;28;20037;-46
2022/05/13 04:28:16;;;;;;;8.25;3.80;;;11.00;83.00;;;;;;5012099;28;20053;-49
2022/05/13 04:30:43;;;;;;;6.22;3.65;;;11.10;83.00;;;;;;5012320;28;20050;-46
2022/05/13 04:33:14;;;;;;;10.88;4.63;;;11.10;83.10;;;;;;5011840;28;20030;-46
2022/05/13 04:35:41;;;;;;;12.27;4.55;;;11.10;83.20;;;;;;5044214;28;20030;-46
2022/05/13 04:38:09;;;;;;;9.18;4.28;;;11.10;83.10;;;;;;5012020;28;20061;-47
2022/05/13 04:40:36;;;;;;;9.73;5.45;;;11.10;83.20;;;;;;5012176;28;20029;-46
2022/05/13 04:43:03;;;;;;;9.40;4.70;;;11.20;83.20;;;;;;5011539;28;20053;-45
2022/05/13 04:45:31;;;;;;;13.10;5.22;;;11.20;83.20;;;;;;5012327;28;20057;-45
2022/05/13 04:48:16;;;;;;;9.13;4.65;;;11.20;83.10;;;;;;5011630;28;20026;-47
2022/05/13 04:50:57;;;;;;;11.48;4.90;;;11.20;83.30;;;;;;5044168;28;20092;-47
2022/05/13 04:53:31;;;;;;;9.65;4.10;;;11.20;83.40;;;;;;5012014;28;20046;-49
2022/05/13 04:55:59;;;;;;;10.00;4.45;;;11.30;83.40;;;;;;5033168;28;20049;-46
2022/05/13 04:58:27;;;;;;;11.23;4.95;;;11.30;83.40;;;;;;5048185;28;20044;-46
2022/05/13 05:00:56;;;;;;;12.48;5.15;;;11.30;83.40;;;;;;5048490;28;20030;-46
2022/05/13 05:03:27;;;;;;;12.43;4.33;;;11.30;83.50;;;;;;5036040;28;20040;-46
2022/05/13 05:05:57;;;;;;;14.98;5.07;;;11.30;83.50;;;;;;5036323;28;20079;-48
2022/05/13 05:08:24;;;;;;;12.85;5.25;;;11.40;83.60;;;;;;5035445;28;20079;-48
2022/05/13 05:10:51;;;;;;;9.18;4.60;;;11.30;83.50;;;;;;5054681;28;20037;-46
2022/05/13 05:13:22;;;;;;;11.55;4.80;;;11.40;83.60;;;;;;5053364;28;20438;-46
2022/05/13 05:15:52;;;;;;;10.95;5.35;;;11.40;83.60;;;;;;5044702;28;20067;-45
2022/05/13 05:18:19;;;;;;;10.05;4.65;;;11.40;83.70;;;;;;5034890;28;20025;-45
2022/05/13 05:20:46;;;;;;;10.80;5.22;;;11.40;83.60;;;;;;5035904;28;20069;-46
2022/05/13 05:23:20;;;;;;;17.65;5.72;;;11.40;83.50;;;;;;5017534;28;20044;-52
2022/05/13 05:25:50;;;;;;;9.18;4.63;;;11.40;83.50;;;;;;5036760;28;20030;-49
2022/05/13 05:28:23;;;;;;;10.25;5.05;;;11.50;83.50;;;;;;5044673;28;20312;-47
2022/05/13 05:30:51;;;;;;;9.50;4.50;;;11.40;83.50;;;;;;5035566;28;20037;-49
2022/05/13 05:33:18;;;;;;;11.55;5.25;;;11.50;83.50;;;;;;5055094;28;20025;-45
2022/05/13 05:35:45;;;;;;;14.32;4.97;;;11.50;83.40;;;;;;5053725;28;20025;-46
2022/05/13 05:38:12;;;;;;;15.93;5.28;;;11.50;83.30;;;;;;5054779;28;20071;-46
2022/05/13 05:40:39;;;;;;;10.70;4.20;;;11.50;83.30;;;;;;5050903;28;20095;-45
2022/05/13 05:43:10;;;;;;;10.02;4.97;;;11.60;83.30;;;;;;5054740;28;20438;-49
2022/05/13 05:45:38;;;;;;;11.48;5.50;;;11.50;83.30;;;;;;5033613;28;20116;-47
2022/05/13 05:48:06;;;;;;;9.48;4.75;;;11.60;83.40;;;;;;5017051;28;20079;-48
2022/05/13 05:50:32;;;;;;;11.43;4.68;;;11.60;83.50;;;;;;5033255;28;20037;-50
2022/05/13 05:53:01;;;;;;;11.98;4.93;;;11.60;83.40;;;;;;5050380;28;20024;-48
2022/05/13 05:58:15;;;;;;;13.13;5.15;;;11.60;83.70;;;;;;5021439;28;20033;-50
2022/05/13 06:00:46;;;;;;;14.05;5.88;;;11.70;83.90;;;;;;5003811;28;20018;-46
2022/05/13 06:03:12;;;;;;;11.30;5.35;;;11.70;83.80;;;;;;5014781;28;20069;-48
2022/05/13 06:05:40;;;;;;;12.07;5.43;;;11.70;83.70;;;;;;4996293;28;20423;-46
2022/05/13 06:08:08;;;;;;;13.55;5.70;;;11.70;83.80;;;;;;5028226;28;20044;-49
2022/05/13 06:10:35;;;;;;;16.90;6.53;;;11.70;83.70;;;;;;5027545;28;20029;-46
2022/05/13 06:13:02;;;;;;;12.38;5.53;;;11.80;83.70;;;;;;5020462;28;20076;-48
2022/05/13 06:15:29;;;;;;;17.08;5.47;;;11.90;83.60;;;;;;5023684;28;20425;-50
2022/05/13 06:17:56;;;;;;;10.95;5.85;;;11.90;83.40;;;;;;5024448;28;20459;-46
2022/05/13 06:20:29;;;;;;;13.57;6.10;;;11.90;83.40;;;;;;5009635;28;20820;-46
2022/05/13 06:22:57;;;;;;;12.85;5.20;;;11.90;83.40;;;;;;5020671;28;20478;-45
2022/05/13 06:25:25;;;;;;;13.52;5.10;;;12.10;83.40;;;;;;5018009;28;20104;-46
2022/05/13 06:27:53;;;;;;;8.57;4.68;;;12.30;83.30;;;;;;5023251;28;20026;-49
2022/05/13 06:30:29;;;;;;;12.18;5.38;;;12.40;82.70;;;;;;5016518;28;20030;-48
2022/05/13 06:32:56;;;;;;;14.30;5.65;;;12.70;82.10;;;;;;5015798;28;20041;-47
2022/05/13 06:35:25;;;;;;;13.10;4.88;;;12.80;81.40;;;;;;5012920;28;20483;-45
2022/05/13 06:37:52;;;;;;;15.50;5.38;;;13.00;81.30;;;;;;5013613;28;20698;-49
2022/05/13 06:40:22;;;;;;;13.65;5.20;;;13.20;80.90;;;;;;5011464;28;20040;-47
2022/05/13 06:42:52;;;;;;;;;;;13.50;80.30;;;;;;4996637;28;20021;-46
2022/05/13 06:45:19;;;;;;;;;;;13.80;79.20;;;;;;5012934;28;20367;-46
2022/05/13 06:47:46;;;;;;;11.77;5.03;;;14.10;78.90;;;;;;5013224;28;19915;-46
2022/05/13 06:50:17;;;;;;;13.82;5.20;;;14.20;77.60;;;;;;5009384;28;20088;-46
2022/05/13 06:52:44;;;;;;;13.45;6.28;;;14.50;77.20;;;;;;4980836;28;20025;-46
2022/05/13 06:55:14;;;;;;;15.55;4.80;;;14.60;76.30;;;;;;5015431;28;20049;-47
2022/05/13 06:57:41;;;;;;;16.65;5.32;;;14.60;76.80;;;;;;5026022;28;20029;-46
2022/05/13 07:00:09;;;;;;;16.35;5.18;;;14.60;76.90;;;;;;5002365;28;20083;-45
2022/05/13 07:02:39;;;;;;;13.88;5.90;;;14.50;77.00;;;;;;5022132;28;20025;-50
2022/05/13 07:05:08;;;;;;;15.15;4.65;;;14.40;77.10;;;;;;5021981;28;20699;-47
2022/05/13 07:07:35;;;;;;;15.52;4.82;;;14.30;77.20;;;;;;5023164;28;20033;-46
2022/05/13 07:10:04;;;;;;;13.93;5.85;;;14.30;77.70;;;;;;5021931;28;20034;-46
2022/05/13 07:12:32;;;;;;;13.65;5.63;;;14.10;78.20;;;;;;5019244;28;20686;-50
2022/05/13 07:14:58;;;;;;;16.88;6.28;;;14.00;78.40;;;;;;5020651;28;20080;-46
2022/05/13 07:17:28;;;;;;;17.30;6.63;;;14.10;78.30;;;;;;5008529;28;20056;-46
2022/05/13 07:19:55;;;;;;;11.75;5.57;;;14.10;78.70;;;;;;5020687;28;20033;-45
2022/05/13 07:22:24;;;;;;;12.30;6.68;;;14.20;78.00;;;;;;5021992;28;20029;-46
2022/05/13 07:24:53;;;;;;;17.98;6.13;;;14.20;78.70;;;;;;5021064;28;20048;-45
2022/05/13 07:27:24;;;;;;;16.67;5.05;;;14.20;77.90;;;;;;5021909;28;20743;-45
2022/05/13 07:29:51;;;;;;;16.48;6.05;;;14.30;77.80;;;;;;5005426;28;20042;-47
2022/05/13 07:32:17;;;;;;;13.65;5.05;;;14.40;78.20;;;;;;4998838;28;20459;-46
2022/05/13 07:34:46;;;;;;;15.02;5.75;;;14.40;78.20;;;;;;5011458;28;20044;-45
2022/05/13 07:37:13;;;;;;;17.48;6.68;;;14.40;77.90;;;;;;5011673;28;20042;-46
2022/05/13 07:42:27;;;;;;;13.73;4.38;;;14.20;77.00;;;;;;5012451;28;20036;-46
2022/05/13 07:44:56;;;;;;;11.57;4.10;;;14.10;76.40;;;;;;5011533;28;20096;-46
2022/05/13 07:47:22;;;;;;;13.50;4.13;;;14.10;76.30;;;;;;5011433;28;20588;-45
2022/05/13 07:49:47;;;;;;;8.95;3.92;;;14.30;76.60;;;;;;5011828;28;20269;-45
2022/05/13 07:52:14;;;;;;;9.05;3.30;;;14.40;76.10;;;;;;5005518;28;20033;-45
2022/05/13 07:54:41;;;;;;;12.38;3.55;;;15.10;74.10;;;;;;5012469;28;20037;-46
2022/05/13 07:57:07;;;;;;;10.50;3.00;;;16.10;71.30;;;;;;5012243;28;20111;-45
2022/05/13 08:00:24;;;;;;;14.07;3.55;;;16.80;68.40;;;;;;5012086;28;20643;-47
2022/05/13 08:02:21;;;;;;;9.65;2.78;;;16.90;67.30;;;;;;5011844;28;20406;-47
2022/05/13 08:04:48;;;;;;;9.02;2.95;;;16.90;66.80;;;;;;5010873;28;20348;-45
2022/05/13 08:07:18;;;;;;;9.07;2.30;;;16.80;67.20;;;;;;5012523;28;20014;-46
2022/05/13 08:09:45;;;;;;;7.53;2.30;;;16.40;67.50;;;;;;5012196;28;20045;-46
2022/05/13 08:12:14;;;;;;;11.95;4.15;;;16.00;68.40;;;;;;5027992;28;20358;-46
2022/05/13 08:14:41;;;;;;;10.60;3.10;;;16.40;69.00;;;;;;5011826;28;20491;-45
2022/05/13 08:17:08;;;;;;;11.00;2.63;;;17.10;67.50;;;;;;5011493;28;20086;-45
2022/05/13 08:19:35;;;;;;;9.57;2.95;;;17.70;64.80;;;;;;5011198;28;20439;-48
2022/05/13 08:22:02;;;;;;;8.77;2.13;;;18.40;62.10;;;;;;5011578;28;20108;-47
2022/05/13 08:24:30;;;;;;;6.50;2.15;;;18.60;62.00;;;;;;5001118;28;20029;-47
2022/05/13 08:26:57;;;;;;;9.07;2.47;;;18.60;59.70;;;;;;5005463;28;20017;-50
2022/05/13 08:29:24;;;;;;;7.32;2.60;;;18.60;62.50;;;;;;5009028;28;20041;-46
2022/05/13 08:31:53;;;;;;;6.43;1.88;;;19.00;60.90;;;;;;5011373;28;20026;-49
2022/05/13 08:34:21;;;;;;;8.93;2.10;;;18.60;57.90;;;;;;5010785;28;20037;-45
2022/05/13 08:36:50;;;;;;;7.32;2.78;;;17.90;60.90;;;;;;5011601;28;20038;-45
2022/05/13 08:39:17;;;;;;;5.65;1.70;;;17.20;61.70;;;;;;5011074;28;20034;-45
2022/05/13 08:42:07;;;;;;;6.05;2.63;;;16.40;63.00;;;;;;5011382;28;20479;-47
2022/05/13 08:44:34;;;;;;;5.60;2.45;;;16.00;64.60;;;;;;5015049;28;20634;-46
2022/05/13 08:47:10;;;;;;;13.48;2.45;;;15.50;66.40;;;;;;5011983;28;20379;-48
2022/05/13 08:49:51;;;;;;;6.85;2.83;;;15.20;67.60;;;;;;5011748;28;20033;-46
2022/05/13 08:53:09;;;;;;;8.77;2.55;;;14.90;69.30;;;;;;5012167;28;20442;-46
2022/05/13 08:55:44;;;;;;;8.02;2.28;;;14.80;70.40;;;;;;4997010;28;20116;-48
2022/05/13 08:58:25;;;;;;;8.38;2.67;;;14.70;71.60;;;;;;5050674;28;20040;-46
2022/05/13 09:00:58;;;;;;;8.88;3.65;;;14.50;72.90;;;;;;5050169;28;20048;-45
2022/05/13 09:03:42;;;;;;;5.93;2.75;;;14.30;73.50;;;;;;5031319;28;20057;-45
2022/05/13 09:06:33;;;;;;;6.55;3.47;;;14.20;75.00;;;;;;5047823;28;20029;-46
2022/05/13 09:09:02;;;;;;;9.10;3.92;;;14.10;76.40;;;;;;5049091;28;20108;-45
2022/05/13 09:11:47;;;;;;;11.77;3.50;;;14.40;76.20;;;;;;5050044;28;20029;-46
2022/05/13 09:14:39;;;;;;;8.70;3.75;;;14.40;75.50;;;;;;5048282;28;20041;-45
2022/05/13 09:17:22;;;;;;;6.90;3.97;;;14.30;76.40;;;;;;5049446;28;20021;-47
2022/05/13 09:19:55;;;;;;;8.82;3.78;;;14.40;75.90;;;;;;5049707;28;20033;-44
2022/05/13 09:22:21;;;;;;;9.18;3.13;;;14.20;75.90;;;;;;5051141;28;20090;-43
2022/05/13 09:24:47;;;;;;;10.13;4.70;;;14.20;77.30;;;;;;5049453;28;20025;-43
2022/05/13 09:27:15;;;;;;;12.70;4.38;;;14.40;78.40;;;;;;5038901;28;20030;-44
2022/05/13 09:29:45;;;;;;;12.98;4.15;;;14.50;77.40;;;;;;5012818;28;20041;-44
2022/05/13 09:32:30;;;;;;;12.95;3.47;;;14.90;78.00;;;;;;5036793;28;20033;-44
2022/05/13 09:35:15;;;;;;;10.70;3.65;;;14.90;75.80;;;;;;5048779;28;20047;-45
2022/05/13 09:37:43;;;;;;;5.65;2.45;;;14.90;76.00;;;;;;5044631;28;20533;-46
2022/05/13 09:40:17;;;;;;;6.32;2.20;;;14.80;74.80;;;;;;5050096;28;20047;-46
2022/05/13 09:42:57;;;;;;;7.35;2.95;;;14.80;72.00;;;;;;5013630;28;20049;-45
2022/05/13 09:45:41;;;;;;;6.53;1.92;;;14.90;72.60;;;;;;5014482;28;20033;-45
2022/05/13 09:48:18;;;;;;;7.50;1.88;;;14.90;70.80;;;;;;5053689;28;20351;-46
2022/05/13 09:51:21;;;;;;;7.35;2.10;;;15.50;70.50;;;;;;5054488;28;20132;-45
2022/05/13 09:54:20;;;;;;;9.02;2.58;;;15.60;70.10;;;;;;5051941;28;20041;-49
2022/05/13 09:56:53;;;;;;;9.90;2.40;;;15.30;70.60;;;;;;5008933;28;20038;-45
2022/05/13 09:59:25;;;;;;;7.93;2.50;;;15.30;69.80;;;;;;5013187;28;20075;-46
2022/05/13 10:01:52;;;;;;;10.48;2.88;;;15.90;69.20;;;;;;5014291;28;20057;-45
2022/05/13 10:04:23;;;;;;;8.48;2.33;;;16.30;67.50;;;;;;5014195;28;20025;-46
2022/05/13 10:07:01;;;;;;;8.65;1.75;;;16.90;69.10;;;;;;5014109;28;20366;-46
2022/05/13 10:15:50;;;;;;;11.30;2.13;;;18.20;61.60;;;;;;5025002;28;20156;-45
2022/05/13 10:18:37;;;;;;;7.85;3.08;;;17.60;61.80;;;;;;5012661;28;20030;-46
2022/05/13 10:21:15;;;;;;;8.88;2.00;;;17.80;61.20;;;;;;5012218;28;20482;-47
2022/05/13 10:24:05;;;;;;;6.82;2.05;;;17.70;61.20;;;;;;5013032;28;20036;-47
2022/05/13 10:26:42;;;;;;;7.93;1.95;;;17.90;60.30;;;;;;5028336;28;20022;-47
2022/05/13 10:29:21;;;;;;;8.77;2.00;;;17.80;60.30;;;;;;5027918;28;20033;-47
2022/05/13 10:31:49;;;;;;;10.80;2.20;;;17.40;61.90;;;;;;5029064;28;20351;-47
2022/05/13 10:34:31;;;;;;;7.10;2.00;;;17.40;63.50;;;;;;5027622;28;20037;-45
2022/05/13 10:37:24;;;;;;;5.82;1.58;;;17.20;62.70;;;;;;5012482;28;20076;-48
2022/05/13 10:40:13;;;;;;;7.68;2.78;;;16.90;62.90;;;;;;5012306;28;20471;-46
2022/05/13 10:43:01;;;;;;;10.87;2.53;;;16.90;63.00;;;;;;5027687;28;20030;-47
2022/05/13 10:45:31;;;;;;;8.02;2.22;;;16.80;63.60;;;;;;5012195;28;20876;-46
2022/05/13 10:48:18;;;;;;;4.07;1.30;;;16.60;64.70;;;;;;5011659;28;20029;-51
2022/05/13 10:51:02;;;;;;;5.90;1.63;;;16.20;63.80;;;;;;5007375;28;20679;-51
2022/05/13 10:54:06;;;;;;;5.50;1.65;;;16.10;64.40;;;;;;5010352;28;20034;-46
2022/05/13 10:56:44;;;;;;;9.48;2.28;;;15.90;65.20;;;;;;5017106;28;20038;-46
2022/05/13 10:59:43;;;;;;;6.95;1.50;;;15.70;66.10;;;;;;5011509;28;20452;-46
2022/05/13 11:02:46;;;;;;;7.73;2.17;;;15.90;65.20;;;;;;5012349;28;20504;-46
2022/05/13 11:05:38;;;;;;;5.30;1.85;;;16.30;64.30;;;;;;5011347;28;20073;-45
2022/05/13 11:08:35;;;;;;;12.00;2.97;;;16.50;64.00;;;;;;5012734;28;20113;-48
2022/05/13 11:11:23;;;;;;;7.90;2.90;;;16.30;65.40;;;;;;5010998;28;20030;-48
2022/05/13 11:14:10;;;;;;;7.28;2.25;;;15.90;66.80;;;;;;5013538;28;20581;-48
2022/05/13 11:16:59;;;;;;;7.47;2.33;;;15.70;66.70;;;;;;5009939;28;20043;-47
2022/05/13 11:19:39;;;;;;;6.85;2.38;;;15.40;67.30;;;;;;5009949;28;20100;-45
2022/05/13 11:22:16;;;;;;;8.18;2.15;;;15.20;67.70;;;;;;5020210;28;20041;-47
2022/05/13 11:28:33;;;;;;;13.57;3.88;;;15.10;69.70;;;;;;5010680;28;20060;-50
2022/05/13 11:31:27;;;;;;;9.75;3.28;;;15.30;70.00;;;;;;5010323;28;20026;-47
2022/05/13 11:34:18;;;;;;;10.43;2.45;;;15.80;68.20;;;;;;5010498;28;20030;-47
2022/05/13 11:37:05;;;;;;;10.30;3.05;;;16.30;66.30;;;;;;5012212;28;20026;-46
2022/05/13 11:39:33;;;;;;;7.55;2.60;;;16.90;64.60;;;;;;5010881;28;20022;-49
2022/05/13 11:42:24;;;;;;;9.80;2.33;;;16.80;63.40;;;;;;5011253;28;20040;-49
2022/05/13 11:45:27;;;;;;;11.13;3.03;;;16.60;63.50;;;;;;5010842;28;20022;-51
2022/05/13 11:48:16;;;;;;;9.30;2.85;;;16.70;64.50;;;;;;5012211;28;20061;-47
2022/05/13 11:50:42;;;;;;;10.75;3.58;;;16.60;64.60;;;;;;5010377;28;20229;-47
2022/05/13 11:53:07;;;;;;;9.18;2.42;;;17.00;63.60;;;;;;5011539;28;20117;-48
2022/05/13 11:55:52;;;;;;;7.03;2.22;;;16.90;63.80;;;;;;5009538;28;20038;-46
2022/05/13 11:58:55;;;;;;;10.63;2.67;;;17.20;64.20;;;;;;5024953;28;20494;-48
2022/05/13 12:01:41;;;;;;;11.57;2.85;;;16.90;62.20;;;;;;5006912;28;20164;-49
2022/05/13 12:04:17;;;;;;;9.45;2.92;;;16.90;63.60;;;;;;5000034;28;20105;-51
2022/05/13 12:06:55;;;;;;;8.43;2.33;;;16.70;64.00;;;;;;5004000;28;20115;-46
2022/05/13 12:09:46;;;;;;;8.07;2.40;;;16.90;64.20;;;;;;5003948;28;20610;-48
2022/05/13 12:12:49;;;;;;;8.48;1.98;;;17.20;62.50;;;;;;5001671;28;20035;-48
2022/05/13 12:15:37;;;;;;;7.53;2.45;;;17.00;62.30;;;;;;5004832;28;20030;-47
2022/05/13 12:18:38;;;;;;;6.32;2.25;;;16.70;63.10;;;;;;5016750;28;20030;-46
2022/05/13 12:21:12;;;;;;;9.60;2.42;;;16.80;62.10;;;;;;4984259;28;20129;-47
2022/05/13 12:24:11;;;;;;;14.43;3.55;;;17.30;65.00;;;;;;4998851;28;20363;-46
2022/05/13 12:26:59;;;;;;;8.63;2.35;;;17.50;63.30;;;;;;4997594;28;20140;-48
2022/05/13 12:29:55;;;;;;;7.18;1.85;;;17.80;62.80;;;;;;5004786;28;20435;-52
2022/05/13 12:32:45;;;;;;;8.52;2.30;;;17.60;60.90;;;;;;5014218;28;20128;-46
2022/05/13 12:38:21;;;;;;;8.43;2.63;;;16.80;62.90;;;;;;4996418;28;20494;-48
2022/05/13 12:41:16;;;;;;;7.50;2.63;;;16.80;64.30;;;;;;4997263;28;20412;-45
2022/05/13 12:43:53;;;;;;;8.10;2.22;;;16.50;63.10;;;;;;5036382;28;20033;-49
2022/05/13 12:47:12;;;;;;;8.93;2.40;;;16.40;64.70;;;;;;5002678;28;20089;-50
2022/05/13 12:49:56;;;;;;;8.70;3.33;;;16.30;65.40;;;;;;5006171;28;20038;-46
2022/05/13 12:52:28;;;;;;;10.15;2.75;;;16.60;64.50;;;;;;5002085;28;20030;-46
2022/05/13 12:55:12;;;;;;;8.15;3.08;;;17.00;63.00;;;;;;5011860;28;20904;-45
2022/05/13 12:57:47;;;;;;;7.75;2.13;;;17.10;63.10;;;;;;5006459;28;20039;-48
2022/05/13 13:00:16;;;;;;;9.27;2.40;;;16.90;63.80;;;;;;5000439;28;20045;-48
2022/05/13 13:02:43;;;;;;;9.73;2.75;;;16.90;63.50;;;;;;5007033;28;20076;-46
2022/05/13 13:05:24;;;;;;;12.27;4.25;;;16.80;65.20;;;;;;5005505;28;20034;-47
2022/05/13 13:08:15;;;;;;;14.50;3.70;;;16.40;65.20;;;;;;5001686;28;20375;-49
2022/05/13 13:11:04;;;;;;;14.10;3.45;;;16.00;66.60;;;;;;5005273;28;20349;-48
2022/05/13 13:13:52;;;;;;;8.90;3.67;;;16.10;67.20;;;;;;4998411;28;20378;-49
2022/05/13 13:16:33;;;;;;;7.07;2.50;;;16.30;66.40;;;;;;5005745;28;20030;-46
2022/05/13 13:19:23;;;;;;;11.30;2.80;;;16.60;66.50;;;;;;5006417;28;20084;-47
2022/05/13 13:22:07;;;;;;;12.50;3.10;;;16.70;64.20;;;;;;4984312;28;20083;-46
2022/05/13 13:24:39;;;;;;;8.88;2.85;;;16.30;64.40;;;;;;4982277;28;20069;-50
2022/05/13 13:27:07;;;;;;;6.63;2.13;;;16.20;66.00;;;;;;5011342;28;20019;-48
2022/05/13 13:29:37;;;;;;;8.13;2.22;;;16.10;65.40;;;;;;4995820;28;20048;-47
2022/05/13 13:32:07;;;;;;;9.30;2.83;;;16.30;65.10;;;;;;5013427;28;20099;-48
2022/05/13 13:34:35;;;;;;;9.93;2.88;;;16.60;65.00;;;;;;5012044;28;20044;-46
2022/05/13 13:37:05;;;;;;;12.98;3.35;;;16.90;64.70;;;;;;5031803;28;20125;-46
2022/05/13 13:39:32;;;;;;;8.63;2.92;;;17.00;65.00;;;;;;4996520;28;20030;-45
2022/05/13 13:42:04;;;;;;;12.63;3.20;;;16.90;64.20;;;;;;4994976;28;20034;-49
2022/05/13 13:44:33;;;;;;;8.73;3.13;;;16.60;64.30;;;;;;5009848;28;20042;-47
2022/05/13 13:47:05;;;;;;;15.05;3.25;;;16.50;65.50;;;;;;5011175;28;20049;-49